Time,TemperatureF,DewpointF,PressureIn,WindDirection,WindDirectionDegrees,WindSpeedMPH,WindSpeedGustMPH,Humidity,HourlyPrecipIn,Conditions,Clouds,dailyrainin,SolarRadiationWatts/m^2,SoftwareType,DateUTC
2013-02-05 00:00:00,29.1,23.1,29.91,North,357,0.0,0.0,78,0.00,OVC,SCT,0.00,0.0,WeatherDisplay:10.37,2013-02-05 05:00:00,
2013-02-05 00:05:00,29.1,23.1,29.91,NNE,20,0.0,0.0,78,0.00,OVC,SCT,0.00,0.0,WeatherDisplay:10.37,2013-02-05 05:05:00,
2013-02-05 00:10:00,29.1,23.1,29.91,NNE,30,0.0,0.0,78,0.00,OVC,SCT,0.00,0.0,WeatherDisplay:10.37,2013-02-05 05:10:00,
2013-02-05 00:20:00,29.1,23.1,29.91,NNE,25,0.0,4.0,78,0.00,OVC,SCT,0.00,0.0,WeatherDisplay:10.37,2013-02-05 05:20:00,
2013-02-05 00:25:00,28.9,22.9,29.91,NNE,18,0.0,2.0,78,0.00,OVC,SCT,0.00,0.0,WeatherDisplay:10.37,2013-02-05 05:25:00,
2013-02-05 00:30:00,28.9,22.9,29.91,North,7,0.0,2.0,78,0.00,OVC,SCT,0.00,0.0,WeatherDisplay:10.37,2013-02-05 05:30:00,
2013-02-05 00:35:00,28.9,23.2,29.92,North,8,0.0,4.0,79,0.00,OVC,SCT,0.00,0.0,WeatherDisplay:10.37,2013-02-05 05:35:00,
2013-02-05 00:40:00,28.8,23.1,29.92,NNE,19,0.0,3.0,79,0.00,OVC,SCT,0.00,0.0,WeatherDisplay:10.37,2013-02-05 05:40:00,
2013-02-05 00:50:00,28.6,22.9,29.92,NNE,23,1.0,6.0,79,0.00,OVC,SCT,0.00,0.0,WeatherDisplay:10.37,2013-02-05 05:50:00,
2013-02-05 01:00:00,28.6,22.9,29.93,NNE,14,0.0,5.0,79,0.00,OVC,SCT,0.00,0.0,WeatherDisplay:10.37,2013-02-05 06:00:00,
2013-02-05 01:05:00,28.6,22.9,29.94,North,5,0.0,0.0,79,0.00,OVC,SCT,0.00,0.0,WeatherDisplay:10.37,2013-02-05 06:05:00,
2013-02-05 01:10:00,28.6,22.9,29.93,North,10,0.0,3.0,79,0.00,OVC,SCT,0.00,0.0,WeatherDisplay:10.37,2013-02-05 06:10:00,
2013-02-05 01:14:00,28.6,22.9,29.93,North,8,0.0,0.0,79,0.00,OVC,SCT,0.00,0.0,WeatherDisplay:10.37,2013-02-05 06:14:00,
2013-02-05 01:19:00,28.6,22.9,29.93,NNE,12,0.0,0.0,79,0.00,OVC,SCT,0.00,0.0,WeatherDisplay:10.37,2013-02-05 06:19:00,
2013-02-05 01:24:00,28.6,23.2,29.93,North,9,0.0,2.0,80,0.00,OVC,SCT,0.00,0.0,WeatherDisplay:10.37,2013-02-05 06:24:00,
2013-02-05 01:29:00,28.6,23.2,29.94,NNE,16,0.0,1.0,80,0.00,OVC,SCT,0.00,0.0,WeatherDisplay:10.37,2013-02-05 06:29:00,
2013-02-05 01:35:00,28.6,23.2,29.93,NNE,16,0.0,0.0,80,0.00,OVC,SCT,0.00,0.0,WeatherDisplay:10.37,2013-02-05 06:35:00,
2013-02-05 01:40:00,28.4,23.0,29.93,NNE,15,0.0,0.0,80,0.00,OVC,SCT,0.00,0.0,WeatherDisplay:10.37,2013-02-05 06:40:00,
2013-02-05 01:49:00,28.2,22.8,29.93,NE,35,0.0,5.0,80,0.00,OVC,SCT,0.00,0.0,WeatherDisplay:10.37,2013-02-05 06:49:00,
2013-02-05 01:54:00,28.2,22.8,29.94,NE,37,1.0,3.0,80,0.00,OVC,SCT,0.00,0.0,WeatherDisplay:10.37,2013-02-05 06:54:00,
2013-02-05 02:00:00,28.2,22.8,29.93,NNE,32,0.0,2.0,80,0.00,OVC,SCT,0.00,0.0,WeatherDisplay:10.37,2013-02-05 07:00:00,
2013-02-05 02:09:00,28.0,23.0,29.92,NE,34,0.0,0.0,81,0.00,OVC,SCT,0.00,0.0,WeatherDisplay:10.37,2013-02-05 07:09:00,
2013-02-05 02:14:00,28.0,23.0,29.92,NNE,28,0.0,2.0,81,0.00,OVC,SCT,0.00,0.0,WeatherDisplay:10.37,2013-02-05 07:14:00,
2013-02-05 02:20:00,28.0,23.0,29.93,NNE,14,0.0,1.0,81,0.00,OVC,SCT,0.00,0.0,WeatherDisplay:10.37,2013-02-05 07:20:00,
2013-02-05 02:29:00,28.0,23.0,29.93,NNE,16,2.0,5.0,81,0.00,OVC,SCT,0.00,0.0,WeatherDisplay:10.37,2013-02-05 07:29:00,
2013-02-05 02:34:00,27.9,22.8,29.93,NNE,19,0.0,2.0,81,0.00,OVC,SCT,0.00,0.0,WeatherDisplay:10.37,2013-02-05 07:34:00,
2013-02-05 02:39:00,27.7,22.6,29.93,North,5,1.0,5.0,81,0.00,OVC,SCT,0.00,0.0,WeatherDisplay:10.37,2013-02-05 07:39:00,
2013-02-05 02:44:00,27.7,22.6,29.93,North,7,0.0,4.0,81,0.00,OVC,SCT,0.00,0.0,WeatherDisplay:10.37,2013-02-05 07:44:00,
2013-02-05 02:50:00,27.7,22.6,29.93,NNE,20,0.0,1.0,81,0.00,OVC,SCT,0.00,0.0,WeatherDisplay:10.37,2013-02-05 07:50:00,
2013-02-05 02:59:00,27.5,22.4,29.93,North,1,3.0,5.0,81,0.00,OVC,SCT,0.00,0.0,WeatherDisplay:10.37,2013-02-05 07:59:00,
2013-02-05 03:04:00,27.5,22.4,29.93,North,5,0.0,4.0,81,0.00,OVC,SCT,0.00,0.0,WeatherDisplay:10.37,2013-02-05 08:04:00,
2013-02-05 03:09:00,27.3,22.3,29.93,NNE,12,1.0,6.0,81,0.00,OVC,SCT,0.00,0.0,WeatherDisplay:10.37,2013-02-05 08:09:00,
2013-02-05 03:14:00,27.1,22.1,29.93,NNE,15,0.0,0.0,81,0.00,OVC,SCT,0.00,0.0,WeatherDisplay:10.37,2013-02-05 08:14:00,
2013-02-05 03:20:00,27.1,22.1,29.93,North,7,0.0,0.0,81,0.00,OVC,SCT,0.00,0.0,WeatherDisplay:10.37,2013-02-05 08:20:00,
2013-02-05 03:25:00,27.1,22.1,29.93,NNE,20,2.0,6.0,81,0.00,OVC,SCT,0.00,0.0,WeatherDisplay:10.37,2013-02-05 08:25:00,
2013-02-05 03:30:00,27.1,22.1,29.93,NNE,22,6.0,6.0,81,0.00,OVC,SCT,0.00,0.0,WeatherDisplay:10.37,2013-02-05 08:30:00,
2013-02-05 03:35:00,27.0,21.6,29.93,NNE,18,1.0,2.0,80,0.00,OVC,SCT,0.00,0.0,WeatherDisplay:10.37,2013-02-05 08:35:00,
2013-02-05 03:44:00,26.8,21.4,29.94,North,5,0.0,4.0,80,0.00,OVC,SCT,0.00,0.0,WeatherDisplay:10.37,2013-02-05 08:44:00,
2013-02-05 03:50:00,26.8,21.4,29.93,North,5,0.0,0.0,80,0.00,OVC,SCT,0.00,0.0,WeatherDisplay:10.37,2013-02-05 08:50:00,
2013-02-05 03:55:00,26.8,21.4,29.93,NNE,16,0.0,5.0,80,0.00,OVC,SCT,0.00,0.0,WeatherDisplay:10.37,2013-02-05 08:55:00,
2013-02-05 04:00:00,26.6,21.3,29.94,North,11,0.0,2.0,80,0.00,OVC,SCT,0.00,0.0,WeatherDisplay:10.37,2013-02-05 09:00:00,
2013-02-05 04:05:00,26.4,21.1,29.94,NNE,20,0.0,5.0,80,0.00,OVC,SCT,0.00,0.0,WeatherDisplay:10.37,2013-02-05 09:05:00,
2013-02-05 04:10:00,26.2,20.9,29.93,NNE,24,0.0,2.0,80,0.00,OVC,SCT,0.00,0.0,WeatherDisplay:10.37,2013-02-05 09:10:00,
2013-02-05 04:15:00,26.2,20.9,29.93,NNE,19,0.0,0.0,80,0.00,OVC,SCT,0.00,0.0,WeatherDisplay:10.37,2013-02-05 09:15:00,
2013-02-05 04:20:00,26.1,20.7,29.93,NNE,20,0.0,0.0,80,0.00,OVC,SCT,0.00,0.0,WeatherDisplay:10.37,2013-02-05 09:20:00,
2013-02-05 04:25:00,25.9,20.6,29.93,ENE,70,0.0,0.0,80,0.00,OVC,SCT,0.00,0.0,WeatherDisplay:10.37,2013-02-05 09:25:00,
2013-02-05 04:30:00,25.7,20.4,29.92,ESE,112,0.0,0.0,80,0.00,OVC,SCT,0.00,0.0,WeatherDisplay:10.37,2013-02-05 09:30:00,
2013-02-05 04:35:00,25.6,20.3,29.92,ESE,112,0.0,0.0,80,0.00,OVC,SCT,0.00,0.0,WeatherDisplay:10.37,2013-02-05 09:35:00,
2013-02-05 04:40:00,25.5,20.2,29.92,ESE,112,0.0,0.0,80,0.00,OVC,SCT,0.00,0.0,WeatherDisplay:10.37,2013-02-05 09:40:00,
2013-02-05 04:45:00,25.5,20.2,29.92,ESE,112,0.0,0.0,80,0.00,OVC,SCT,0.00,0.0,WeatherDisplay:10.37,2013-02-05 09:45:00,
2013-02-05 04:50:00,25.3,20.0,29.92,ESE,112,0.0,0.0,80,0.00,BKN,SCT,0.00,0.0,WeatherDisplay:10.37,2013-02-05 09:50:00,
2013-02-05 04:55:00,25.3,20.0,29.92,ESE,112,0.0,0.0,80,0.00,BKN,SCT,0.00,0.0,WeatherDisplay:10.37,2013-02-05 09:55:00,
2013-02-05 05:05:00,25.0,19.7,29.92,ESE,112,0.0,0.0,80,0.00,OVC,SCT,0.00,0.0,WeatherDisplay:10.37,2013-02-05 10:05:00,
2013-02-05 05:10:00,25.0,19.7,29.93,ESE,112,0.0,0.0,80,0.00,OVC,SCT,0.00,0.0,WeatherDisplay:10.37,2013-02-05 10:10:00,
2013-02-05 05:20:00,25.0,20.0,29.93,ESE,112,0.0,0.0,81,0.00,OVC,SCT,0.00,0.0,WeatherDisplay:10.37,2013-02-05 10:20:00,
2013-02-05 05:25:00,25.0,20.0,29.93,ESE,112,0.0,0.0,81,0.00,OVC,SCT,0.00,0.0,WeatherDisplay:10.37,2013-02-05 10:25:00,
2013-02-05 05:30:00,25.0,20.0,29.94,ESE,112,0.0,0.0,81,0.00,OVC,SCT,0.00,0.0,WeatherDisplay:10.37,2013-02-05 10:30:00,
2013-02-05 05:35:00,25.2,20.1,29.93,ESE,112,0.0,0.0,81,0.00,OVC,SCT,0.00,0.0,WeatherDisplay:10.37,2013-02-05 10:35:00,
2013-02-05 05:40:00,25.2,20.1,29.94,ESE,112,0.0,0.0,81,0.00,OVC,SCT,0.00,0.0,WeatherDisplay:10.37,2013-02-05 10:40:00,
2013-02-05 05:45:00,25.2,20.1,29.93,ESE,112,0.0,0.0,81,0.00,OVC,SCT,0.00,0.0,WeatherDisplay:10.37,2013-02-05 10:45:00,
2013-02-05 05:54:00,25.0,20.0,29.93,ESE,112,0.0,0.0,81,0.00,OVC,SCT,0.00,0.0,WeatherDisplay:10.37,2013-02-05 10:54:00,
2013-02-05 06:04:00,25.0,20.0,29.93,ESE,112,0.0,0.0,81,0.00,OVC,SCT,0.00,0.0,WeatherDisplay:10.37,2013-02-05 11:04:00,
2013-02-05 06:09:00,25.0,20.0,29.93,ESE,112,0.0,0.0,81,0.00,OVC,SCT,0.00,0.0,WeatherDisplay:10.37,2013-02-05 11:09:00,
2013-02-05 06:14:00,25.0,20.0,29.93,ESE,112,0.0,0.0,81,0.00,OVC,SCT,0.00,0.0,WeatherDisplay:10.37,2013-02-05 11:14:00,
2013-02-05 06:20:00,24.6,19.6,29.93,ESE,112,0.0,0.0,81,0.00,OVC,SCT,0.00,0.0,WeatherDisplay:10.37,2013-02-05 11:20:00,
2013-02-05 06:30:00,24.6,19.6,29.94,ESE,112,0.0,0.0,81,0.00,OVC,SCT,0.00,0.0,WeatherDisplay:10.37,2013-02-05 11:30:00,
2013-02-05 06:39:00,24.6,19.6,29.93,ESE,112,0.0,0.0,81,0.00,OVC,SCT,0.00,0.0,WeatherDisplay:10.37,2013-02-05 11:39:00,
2013-02-05 06:44:00,24.4,19.4,29.93,ESE,112,0.0,0.0,81,0.00,OVC,SCT,0.00,0.0,WeatherDisplay:10.37,2013-02-05 11:44:00,
2013-02-05 06:49:00,24.4,19.4,29.93,ESE,112,0.0,0.0,81,0.00,OVC,SCT,0.00,0.0,WeatherDisplay:10.37,2013-02-05 11:49:00,
2013-02-05 06:54:00,24.1,19.1,29.94,ESE,112,0.0,0.0,81,0.00,OVC,SCT,0.00,0.0,WeatherDisplay:10.37,2013-02-05 11:54:00,
2013-02-05 06:59:00,24.0,19.0,29.94,ESE,112,0.0,0.0,81,0.00,OVC,SCT,0.00,0.0,WeatherDisplay:10.37,2013-02-05 11:59:00,
2013-02-05 07:04:00,23.9,18.9,29.94,ESE,112,0.0,0.0,81,0.00,OVC,SCT,0.00,0.0,WeatherDisplay:10.37,2013-02-05 12:04:00,
2013-02-05 07:10:00,23.7,18.7,29.94,ESE,112,0.0,0.0,81,0.00,OVC,SCT,0.00,0.0,WeatherDisplay:10.37,2013-02-05 12:10:00,
2013-02-05 07:14:00,23.5,18.6,29.94,ESE,112,0.0,0.0,81,0.00,OVC,SCT,0.00,0.0,WeatherDisplay:10.37,2013-02-05 12:14:00,
2013-02-05 07:19:00,23.5,18.6,29.94,ESE,112,0.0,0.0,81,0.00,SCT,SCT,0.00,0.0,WeatherDisplay:10.37,2013-02-05 12:19:00,
2013-02-05 07:30:00,23.2,18.2,29.94,ESE,112,0.0,0.0,81,0.00,SCT,SCT,0.00,0.0,WeatherDisplay:10.37,2013-02-05 12:30:00,
2013-02-05 07:35:00,23.0,18.0,29.95,ESE,112,0.0,0.0,81,0.00,SCT,SCT,0.00,0.0,WeatherDisplay:10.37,2013-02-05 12:35:00,
2013-02-05 07:40:00,22.8,17.9,29.95,ESE,112,0.0,0.0,81,0.00,SCT,SCT,0.00,0.0,WeatherDisplay:10.37,2013-02-05 12:40:00,
2013-02-05 07:45:00,22.8,18.1,29.95,ESE,112,0.0,0.0,82,0.00,SCT,SCT,0.00,0.0,WeatherDisplay:10.37,2013-02-05 12:45:00,
2013-02-05 07:50:00,22.8,18.1,29.95,ESE,112,0.0,0.0,82,0.00,SCT,SCT,0.00,0.0,WeatherDisplay:10.37,2013-02-05 12:50:00,
2013-02-05 07:59:00,22.8,18.1,29.95,ESE,112,0.0,0.0,82,0.00,SCT,SCT,0.00,0.0,WeatherDisplay:10.37,2013-02-05 12:59:00,
2013-02-05 08:05:00,22.8,18.1,29.95,ESE,112,0.0,0.0,82,0.00,SCT,SCT,0.00,0.0,WeatherDisplay:10.37,2013-02-05 13:05:00,
2013-02-05 08:10:00,22.9,18.2,29.95,ESE,112,0.0,0.0,82,0.00,SCT,SCT,0.00,0.0,WeatherDisplay:10.37,2013-02-05 13:10:00,
2013-02-05 08:15:00,23.1,18.4,29.95,ESE,112,0.0,0.0,82,0.00,SCT,SCT,0.00,0.0,WeatherDisplay:10.37,2013-02-05 13:15:00,
2013-02-05 08:20:00,23.2,18.5,29.95,ESE,112,0.0,0.0,82,0.00,BKN,SCT,0.00,0.0,WeatherDisplay:10.37,2013-02-05 13:20:00,
2013-02-05 08:25:00,23.4,19.0,29.95,ESE,112,0.0,0.0,83,0.00,BKN,SCT,0.00,0.0,WeatherDisplay:10.37,2013-02-05 13:25:00,
2013-02-05 08:30:00,23.5,19.1,29.95,ESE,111,0.0,14.0,83,0.00,BKN,SCT,0.00,0.0,WeatherDisplay:10.37,2013-02-05 13:30:00,
2013-02-05 08:35:00,23.7,19.3,29.95,ESE,111,0.0,0.0,83,0.00,BKN,SCT,0.00,0.0,WeatherDisplay:10.37,2013-02-05 13:35:00,
2013-02-05 08:45:00,24.1,19.7,29.95,ESE,112,0.0,0.0,83,0.00,BKN,SCT,0.00,0.0,WeatherDisplay:10.37,2013-02-05 13:45:00,
2013-02-05 08:50:00,24.4,20.0,29.95,ESE,112,0.0,0.0,83,0.00,BKN,SCT,0.00,0.0,WeatherDisplay:10.37,2013-02-05 13:50:00,
2013-02-05 08:55:00,24.6,20.2,29.95,ESE,112,0.0,0.0,83,0.00,BKN,SCT,0.00,0.0,WeatherDisplay:10.37,2013-02-05 13:55:00,
2013-02-05 09:04:00,25.0,20.5,29.95,ESE,111,0.0,0.0,83,0.00,BKN,SCT,0.00,0.0,WeatherDisplay:10.37,2013-02-05 14:04:00,
2013-02-05 09:10:00,25.2,20.7,29.95,ESE,112,0.0,0.0,83,0.00,BKN,SCT,0.00,0.0,WeatherDisplay:10.37,2013-02-05 14:10:00,
2013-02-05 09:19:00,25.5,21.4,29.95,SE,146,0.0,0.0,84,0.00,BKN,SCT,0.00,0.0,WeatherDisplay:10.37,2013-02-05 14:19:00,
2013-02-05 09:24:00,25.7,21.5,29.95,SSE,158,0.0,0.0,84,0.00,BKN,SCT,0.00,0.0,WeatherDisplay:10.37,2013-02-05 14:24:00,
2013-02-05 09:29:00,26.2,22.1,29.95,SSE,158,0.0,0.0,84,0.00,BKN,SCT,0.00,0.0,WeatherDisplay:10.37,2013-02-05 14:29:00,
2013-02-05 09:35:00,26.4,22.2,29.95,SSE,158,0.0,0.0,84,0.00,BKN,SCT,0.00,0.0,WeatherDisplay:10.37,2013-02-05 14:35:00,
2013-02-05 09:40:00,26.5,22.3,29.95,SSE,158,0.0,0.0,84,0.00,BKN,SCT,0.00,0.0,WeatherDisplay:10.37,2013-02-05 14:40:00,
2013-02-05 09:49:00,26.9,22.7,29.96,SSE,158,0.0,0.0,84,0.00,BKN,SCT,0.00,0.0,WeatherDisplay:10.37,2013-02-05 14:49:00,
2013-02-05 09:59:00,27.1,22.9,29.97,SSE,159,0.0,0.0,84,0.00,BKN,SCT,0.00,0.0,WeatherDisplay:10.37,2013-02-05 14:59:00,
2013-02-05 10:09:00,27.7,23.2,29.97,South,183,0.0,0.0,83,0.00,BKN,SCT,0.00,0.0,WeatherDisplay:10.37,2013-02-05 15:09:00,
2013-02-05 10:14:00,27.7,23.2,29.97,SSW,201,0.0,0.0,83,0.00,BKN,SCT,0.00,0.0,WeatherDisplay:10.37,2013-02-05 15:14:00,
2013-02-05 10:20:00,28.0,23.5,29.96,SW,220,0.0,0.0,83,0.00,OVC,SCT,0.00,0.0,WeatherDisplay:10.37,2013-02-05 15:20:00,
2013-02-05 10:29:00,28.0,23.3,29.96,South,184,0.0,0.0,82,0.00,OVC,SCT,0.00,0.0,WeatherDisplay:10.37,2013-02-05 15:29:00,
2013-02-05 10:34:00,28.6,23.8,29.96,South,180,0.0,0.0,82,0.00,OVC,SCT,0.00,0.0,WeatherDisplay:10.37,2013-02-05 15:34:00,
2013-02-05 10:44:00,29.1,24.3,29.97,SW,214,0.0,0.0,82,0.00,OVC,SCT,0.00,0.0,WeatherDisplay:10.37,2013-02-05 15:44:00,
2013-02-05 10:49:00,29.1,24.3,29.96,South,182,0.0,0.0,82,0.00,OVC,SCT,0.00,0.0,WeatherDisplay:10.37,2013-02-05 15:49:00,
2013-02-05 10:54:00,29.5,24.4,29.96,South,174,0.0,0.0,81,0.00,OVC,SCT,0.00,0.0,WeatherDisplay:10.37,2013-02-05 15:54:00,
2013-02-05 10:59:00,29.8,24.7,29.96,SSW,194,0.0,0.0,81,0.00,OVC,SCT,0.00,0.0,WeatherDisplay:10.37,2013-02-05 15:59:00,
2013-02-05 11:05:00,30.1,24.9,29.95,SSW,192,0.0,0.0,81,0.00,OVC,SCT,0.00,0.0,WeatherDisplay:10.37,2013-02-05 16:05:00,
2013-02-05 11:14:00,30.7,25.0,29.94,South,178,0.0,0.0,79,0.00,OVC,SCT,0.00,0.0,WeatherDisplay:10.37,2013-02-05 16:14:00,
2013-02-05 11:20:00,30.9,25.2,29.94,SSE,161,0.0,0.0,79,0.00,OVC,SCT,0.00,0.0,WeatherDisplay:10.37,2013-02-05 16:20:00,
2013-02-05 11:29:00,31.6,25.6,29.95,South,191,2.0,4.0,78,0.00,OVC,SCT,0.00,0.0,WeatherDisplay:10.37,2013-02-05 16:29:00,
2013-02-05 11:34:00,31.8,25.4,29.94,South,187,0.0,6.0,77,0.00,OVC,SCT,0.00,0.0,WeatherDisplay:10.37,2013-02-05 16:34:00,
2013-02-05 11:40:00,31.8,25.1,29.94,South,172,1.0,7.0,76,0.00,OVC,SCT,0.00,0.0,WeatherDisplay:10.37,2013-02-05 16:40:00,
2013-02-05 11:45:00,32.0,25.3,29.94,South,174,0.0,8.0,76,0.00,OVC,SCT,0.00,0.0,WeatherDisplay:10.37,2013-02-05 16:45:00,
2013-02-05 11:54:00,32.4,25.6,29.93,South,171,1.0,6.0,76,0.00,OVC,SCT,0.00,0.0,WeatherDisplay:10.37,2013-02-05 16:54:00,
2013-02-05 12:04:00,32.5,25.5,29.93,South,182,1.0,10.0,75,0.00,OVC,SCT,0.00,0.0,WeatherDisplay:10.37,2013-02-05 17:04:00,
2013-02-05 12:10:00,32.5,25.5,29.93,South,188,5.0,8.0,75,0.00,OVC,SCT,0.00,0.0,WeatherDisplay:10.37,2013-02-05 17:10:00,
2013-02-05 12:19:00,32.7,25.3,29.92,South,174,0.0,5.0,74,0.00,OVC,SCT,0.00,0.0,WeatherDisplay:10.37,2013-02-05 17:19:00,
2013-02-05 12:29:00,32.8,25.1,29.91,South,173,2.0,8.0,73,0.00,OVC,SCT,0.00,0.0,WeatherDisplay:10.37,2013-02-05 17:29:00,
2013-02-05 12:34:00,32.7,25.0,29.90,South,174,3.0,7.0,73,0.00,OVC,SCT,0.00,0.0,WeatherDisplay:10.37,2013-02-05 17:34:00,
2013-02-05 12:39:00,32.9,25.2,29.90,South,175,0.0,6.0,73,0.00,OVC,SCT,0.00,0.0,WeatherDisplay:10.37,2013-02-05 17:39:00,
2013-02-05 12:49:00,33.1,25.0,29.90,South,185,0.0,6.0,72,0.00,OVC,SCT,0.00,0.0,WeatherDisplay:10.37,2013-02-05 17:49:00,
2013-02-05 12:54:00,33.3,25.5,29.90,SSW,194,0.0,5.0,73,0.00,OVC,SCT,0.00,0.0,WeatherDisplay:10.37,2013-02-05 17:54:00,
2013-02-05 12:59:00,33.5,25.8,29.90,SSE,167,3.0,7.0,73,0.00,OVC,SCT,0.00,0.0,WeatherDisplay:10.37,2013-02-05 17:59:00,
2013-02-05 13:04:00,33.6,25.9,29.90,South,177,2.0,7.0,73,0.00,OVC,SCT,0.00,0.0,WeatherDisplay:10.37,2013-02-05 18:04:00,
2013-02-05 13:10:00,33.4,25.7,29.90,South,182,2.0,7.0,73,0.00,OVC,SCT,0.00,0.0,WeatherDisplay:10.37,2013-02-05 18:10:00,
2013-02-05 13:15:00,33.4,25.7,29.90,South,185,0.0,0.0,73,0.00,OVC,SCT,0.00,0.0,WeatherDisplay:10.37,2013-02-05 18:15:00,
2013-02-05 13:24:00,33.4,25.7,29.90,South,181,0.0,9.0,73,0.00,OVC,SCT,0.00,0.0,WeatherDisplay:10.37,2013-02-05 18:24:00,
2013-02-05 13:35:00,33.1,25.7,29.89,South,184,2.0,7.0,74,0.00,OVC,SCT,0.00,0.0,WeatherDisplay:10.37,2013-02-05 18:35:00,
2013-02-05 13:40:00,33.1,25.7,29.89,South,181,0.0,3.0,74,0.00,OVC,SCT,0.00,0.0,WeatherDisplay:10.37,2013-02-05 18:40:00,
2013-02-05 13:50:00,33.4,26.0,29.88,South,178,0.0,0.0,74,0.00,OVC,SCT,0.00,0.0,WeatherDisplay:10.37,2013-02-05 18:50:00,
2013-02-05 14:00:00,33.7,26.6,29.88,SSW,206,0.0,6.0,75,0.00,OVC,SCT,0.00,0.0,WeatherDisplay:10.37,2013-02-05 19:00:00,
2013-02-05 14:09:00,33.8,26.4,29.88,SSW,195,5.0,8.0,74,0.00,OVC,SCT,0.00,0.0,WeatherDisplay:10.37,2013-02-05 19:09:00,
2013-02-05 14:15:00,33.8,26.1,29.87,SSW,193,3.0,8.0,73,0.00,OVC,SCT,0.00,0.0,WeatherDisplay:10.37,2013-02-05 19:15:00,
2013-02-05 14:19:00,33.8,26.1,29.87,SSW,195,1.0,7.0,73,0.00,OVC,SCT,0.00,0.0,WeatherDisplay:10.37,2013-02-05 19:19:00,
2013-02-05 14:29:00,34.3,26.6,29.87,South,182,1.0,12.0,73,0.00,OVC,SCT,0.00,0.0,WeatherDisplay:10.37,2013-02-05 19:29:00,
2013-02-05 14:34:00,34.5,26.8,29.85,SSW,195,1.0,9.0,73,0.00,OVC,SCT,0.00,0.0,WeatherDisplay:10.37,2013-02-05 19:34:00,
2013-02-05 14:40:00,34.9,27.1,29.85,SSW,193,1.0,7.0,73,0.00,OVC,SCT,0.00,0.0,WeatherDisplay:10.37,2013-02-05 19:40:00,
2013-02-05 14:49:00,35.4,27.6,29.85,SSW,197,1.0,6.0,73,0.00,OVC,SCT,0.00,0.0,WeatherDisplay:10.37,2013-02-05 19:49:00,
2013-02-05 14:54:00,35.4,27.3,29.85,South,189,0.0,8.0,72,0.00,OVC,SCT,0.00,0.0,WeatherDisplay:10.37,2013-02-05 19:54:00,
2013-02-05 14:59:00,35.4,27.6,29.85,SSW,195,0.0,4.0,73,0.00,OVC,SCT,0.00,0.0,WeatherDisplay:10.37,2013-02-05 19:59:00,
2013-02-05 15:05:00,35.8,27.6,29.84,South,189,5.0,8.0,72,0.00,OVC,SCT,0.00,0.0,WeatherDisplay:10.37,2013-02-05 20:05:00,
2013-02-05 15:14:00,36.1,28.0,29.85,SSW,203,1.0,8.0,72,0.00,OVC,SCT,0.00,0.0,WeatherDisplay:10.37,2013-02-05 20:14:00,
2013-02-05 15:20:00,36.2,28.1,29.85,SSW,202,0.0,2.0,72,0.00,BKN,SCT,0.00,0.0,WeatherDisplay:10.37,2013-02-05 20:20:00,
2013-02-05 15:25:00,36.3,28.2,29.85,SSW,193,5.0,12.0,72,0.00,BKN,SCT,0.00,0.0,WeatherDisplay:10.37,2013-02-05 20:25:00,
2013-02-05 15:34:00,36.3,28.2,29.85,SSW,199,0.0,6.0,72,0.00,BKN,SCT,0.00,0.0,WeatherDisplay:10.37,2013-02-05 20:34:00,
2013-02-05 15:40:00,36.3,28.2,29.85,SSW,208,2.0,6.0,72,0.00,BKN,SCT,0.00,0.0,WeatherDisplay:10.37,2013-02-05 20:40:00,
2013-02-05 15:45:00,36.3,28.2,29.85,SW,221,1.0,7.0,72,0.00,BKN,SCT,0.00,0.0,WeatherDisplay:10.37,2013-02-05 20:45:00,
2013-02-05 15:55:00,36.3,28.2,29.85,SW,232,2.0,6.0,72,0.00,BKN,SCT,0.00,0.0,WeatherDisplay:10.37,2013-02-05 20:55:00,
2013-02-05 16:04:00,36.3,28.2,29.85,SSW,207,1.0,7.0,72,0.00,BKN,SCT,0.00,0.0,WeatherDisplay:10.37,2013-02-05 21:04:00,
2013-02-05 16:10:00,36.5,28.3,29.86,SW,215,1.0,4.0,72,0.00,BKN,SCT,0.00,0.0,WeatherDisplay:10.37,2013-02-05 21:10:00,
2013-02-05 16:15:00,36.5,28.3,29.86,SW,222,1.0,6.0,72,0.00,BKN,SCT,0.00,0.0,WeatherDisplay:10.37,2013-02-05 21:15:00,
2013-02-05 16:19:00,36.6,28.4,29.86,SW,223,0.0,1.0,72,0.00,BKN,SCT,0.00,0.0,WeatherDisplay:10.37,2013-02-05 21:19:00,
2013-02-05 16:25:00,36.7,28.5,29.86,SW,228,0.0,0.0,72,0.00,BKN,SCT,0.00,0.0,WeatherDisplay:10.37,2013-02-05 21:25:00,
2013-02-05 16:34:00,36.6,28.4,29.85,SSW,212,0.0,6.0,72,0.00,BKN,SCT,0.00,0.0,WeatherDisplay:10.37,2013-02-05 21:34:00,
2013-02-05 16:44:00,36.6,28.5,29.85,SW,235,0.0,0.0,72,0.00,BKN,SCT,0.00,0.0,WeatherDisplay:10.37,2013-02-05 21:44:00,
2013-02-05 16:50:00,36.6,28.5,29.86,WSW,242,2.0,4.0,72,0.00,BKN,SCT,0.00,0.0,WeatherDisplay:10.37,2013-02-05 21:50:00,
2013-02-05 16:59:00,36.6,28.4,29.86,SW,233,1.0,8.0,72,0.00,BKN,SCT,0.00,0.0,WeatherDisplay:10.37,2013-02-05 21:59:00,
2013-02-05 17:04:00,36.5,28.3,29.87,WSW,245,1.0,6.0,72,0.00,BKN,SCT,0.00,0.0,WeatherDisplay:10.37,2013-02-05 22:04:00,
2013-02-05 17:09:00,36.5,28.3,29.88,WSW,248,1.0,6.0,72,0.00,BKN,SCT,0.00,0.0,WeatherDisplay:10.37,2013-02-05 22:09:00,
2013-02-05 17:20:00,36.3,28.2,29.89,WSW,243,0.0,5.0,72,0.00,BKN,SCT,0.00,0.0,WeatherDisplay:10.37,2013-02-05 22:20:00,
2013-02-05 17:29:00,36.1,28.3,29.90,WSW,252,1.0,5.0,73,0.00,BKN,SCT,0.00,0.0,WeatherDisplay:10.37,2013-02-05 22:29:00,
2013-02-05 17:34:00,36.1,28.3,29.90,WSW,256,0.0,5.0,73,0.00,BKN,SCT,0.00,0.0,WeatherDisplay:10.37,2013-02-05 22:34:00,
2013-02-05 17:40:00,36.1,28.3,29.90,West,274,5.0,8.0,73,0.00,BKN,SCT,0.00,0.0,WeatherDisplay:10.37,2013-02-05 22:40:00,
2013-02-05 17:49:00,36.0,28.5,29.90,West,259,0.0,6.0,74,0.00,BKN,SCT,0.00,0.0,WeatherDisplay:10.37,2013-02-05 22:49:00,
2013-02-05 17:55:00,36.0,28.5,29.90,WSW,257,0.0,3.0,74,0.00,BKN,SCT,0.00,0.0,WeatherDisplay:10.37,2013-02-05 22:55:00,
2013-02-05 18:00:00,35.9,28.4,29.91,West,273,2.0,6.0,74,0.00,BKN,SCT,0.00,0.0,WeatherDisplay:10.37,2013-02-05 23:00:00,
2013-02-05 18:09:00,35.8,28.3,29.91,SW,229,0.0,5.0,74,0.00,BKN,SCT,0.00,0.0,WeatherDisplay:10.37,2013-02-05 23:09:00,
2013-02-05 18:14:00,35.6,28.1,29.91,WSW,255,1.0,7.0,74,0.00,BKN,SCT,0.00,0.0,WeatherDisplay:10.37,2013-02-05 23:14:00,
2013-02-05 18:24:00,35.4,28.3,29.91,WSW,252,0.0,0.0,75,0.00,OVC,SCT,0.00,0.0,WeatherDisplay:10.37,2013-02-05 23:24:00,
2013-02-05 18:29:00,35.4,28.3,29.91,WSW,249,0.0,3.0,75,0.00,OVC,SCT,0.00,0.0,WeatherDisplay:10.37,2013-02-05 23:29:00,
2013-02-05 18:34:00,35.4,28.3,29.92,West,261,1.0,3.0,75,0.00,OVC,SCT,0.00,0.0,WeatherDisplay:10.37,2013-02-05 23:34:00,
2013-02-05 18:39:00,35.4,28.3,29.92,WSW,252,0.0,0.0,75,0.00,OVC,SCT,0.00,0.0,WeatherDisplay:10.37,2013-02-05 23:39:00,
2013-02-05 18:44:00,35.4,28.3,29.92,SW,234,0.0,0.0,75,0.00,OVC,SCT,0.00,0.0,WeatherDisplay:10.37,2013-02-05 23:44:00,
2013-02-05 18:49:00,35.4,28.6,29.93,WSW,242,0.0,0.0,76,0.00,OVC,SCT,0.00,0.0,WeatherDisplay:10.37,2013-02-05 23:49:00,
2013-02-05 18:54:00,35.4,28.6,29.93,WSW,249,0.0,5.0,76,0.00,OVC,SCT,0.00,0.0,WeatherDisplay:10.37,2013-02-05 23:54:00,
2013-02-05 19:00:00,35.4,28.6,29.93,WSW,251,0.0,3.0,76,0.00,OVC,SCT,0.00,0.0,WeatherDisplay:10.37,2013-02-06 00:00:00,
2013-02-05 19:09:00,35.4,28.6,29.93,WSW,248,0.0,3.0,76,0.00,OVC,SCT,0.00,0.0,WeatherDisplay:10.37,2013-02-06 00:09:00,
2013-02-05 19:14:00,35.4,28.6,29.93,WSW,248,0.0,0.0,76,0.00,OVC,SCT,0.00,0.0,WeatherDisplay:10.37,2013-02-06 00:14:00,
2013-02-05 19:19:00,35.4,28.6,29.93,WSW,247,1.0,3.0,76,0.00,OVC,SCT,0.00,0.0,WeatherDisplay:10.37,2013-02-06 00:19:00,
2013-02-05 19:24:00,35.4,28.9,29.93,WSW,247,0.0,7.0,77,0.00,OVC,SCT,0.00,0.0,WeatherDisplay:10.37,2013-02-06 00:24:00,
2013-02-05 19:29:00,35.4,28.9,29.93,WSW,248,0.0,0.0,77,0.00,OVC,SCT,0.00,0.0,WeatherDisplay:10.37,2013-02-06 00:29:00,
2013-02-05 19:34:00,35.4,28.9,29.94,WSW,253,0.0,3.0,77,0.00,OVC,SCT,0.00,0.0,WeatherDisplay:10.37,2013-02-06 00:34:00,
2013-02-05 19:39:00,35.4,28.9,29.94,West,260,0.0,5.0,77,0.00,OVC,SCT,0.00,0.0,WeatherDisplay:10.37,2013-02-06 00:39:00,
2013-02-05 19:45:00,35.4,28.9,29.94,West,259,0.0,5.0,77,0.00,OVC,SCT,0.00,0.0,WeatherDisplay:10.37,2013-02-06 00:45:00,
2013-02-05 19:55:00,35.4,29.2,29.95,WSW,258,0.0,2.0,78,0.00,OVC,SCT,0.00,0.0,WeatherDisplay:10.37,2013-02-06 00:55:00,
2013-02-05 20:04:00,35.7,29.5,29.95,West,265,0.0,3.0,78,0.00,OVC,SCT,0.00,0.0,WeatherDisplay:10.37,2013-02-06 01:04:00,
2013-02-05 20:10:00,35.7,29.5,29.95,West,271,0.0,0.0,78,0.00,OVC,SCT,0.00,0.0,WeatherDisplay:10.37,2013-02-06 01:10:00,
2013-02-05 20:15:00,35.8,29.9,29.95,West,276,1.0,5.0,79,0.00,OVC,SCT,0.00,0.0,WeatherDisplay:10.37,2013-02-06 01:15:00,
2013-02-05 20:20:00,35.8,29.9,29.95,WNW,284,0.0,6.0,79,0.00,OVC,SCT,0.00,0.0,WeatherDisplay:10.37,2013-02-06 01:20:00,
2013-02-05 20:25:00,35.8,30.2,29.95,West,280,0.0,6.0,80,0.00,OVC,SCT,0.00,0.0,WeatherDisplay:10.37,2013-02-06 01:25:00,
2013-02-05 20:30:00,35.8,30.2,29.96,WNW,298,0.0,6.0,80,0.00,OVC,SCT,0.00,0.0,WeatherDisplay:10.37,2013-02-06 01:30:00,
2013-02-05 20:39:00,35.8,30.2,29.97,West,272,0.0,3.0,80,0.00,OVC,SCT,0.00,0.0,WeatherDisplay:10.37,2013-02-06 01:39:00,
2013-02-05 20:49:00,35.8,30.5,29.97,West,265,0.0,0.0,81,0.00,OVC,SCT,0.00,0.0,WeatherDisplay:10.37,2013-02-06 01:49:00,
2013-02-05 20:54:00,35.8,30.5,29.97,West,275,0.0,0.0,81,0.00,OVC,SCT,0.00,0.0,WeatherDisplay:10.37,2013-02-06 01:54:00,
2013-02-05 21:04:00,35.8,30.5,29.98,WNW,287,0.0,4.0,81,0.00,OVC,SCT,0.00,0.0,WeatherDisplay:10.37,2013-02-06 02:04:00,
2013-02-05 21:14:00,35.7,30.5,29.98,West,277,1.0,6.0,81,0.00,OVC,SCT,0.00,0.0,WeatherDisplay:10.37,2013-02-06 02:14:00,
2013-02-05 21:19:00,35.7,30.4,29.98,WNW,301,0.0,7.0,81,0.00,OVC,SCT,0.00,0.0,WeatherDisplay:10.37,2013-02-06 02:19:00,
2013-02-05 21:25:00,35.4,30.2,29.98,NW,306,0.0,6.0,81,0.00,OVC,SCT,0.00,0.0,WeatherDisplay:10.37,2013-02-06 02:25:00,
2013-02-05 21:35:00,35.4,30.2,29.99,WNW,288,1.0,7.0,81,0.00,OVC,SCT,0.00,0.0,WeatherDisplay:10.37,2013-02-06 02:35:00,
2013-02-05 21:44:00,35.4,30.5,29.99,WNW,298,1.0,6.0,82,0.00,OVC,SCT,0.00,0.0,WeatherDisplay:10.37,2013-02-06 02:44:00,
2013-02-05 21:49:00,35.4,30.5,29.99,WNW,302,0.0,2.0,82,0.00,OVC,SCT,0.00,0.0,WeatherDisplay:10.37,2013-02-06 02:49:00,
2013-02-05 21:59:00,35.4,30.5,30.00,WNW,288,0.0,8.0,82,0.00,OVC,SCT,0.00,0.0,WeatherDisplay:10.37,2013-02-06 02:59:00,
2013-02-05 22:04:00,35.2,30.3,30.00,WNW,295,3.0,11.0,82,0.00,OVC,SCT,0.00,0.0,WeatherDisplay:10.37,2013-02-06 03:04:00,
2013-02-05 22:09:00,35.2,30.3,30.01,WNW,297,3.0,9.0,82,0.00,OVC,SCT,0.00,0.0,WeatherDisplay:10.37,2013-02-06 03:09:00,
2013-02-05 22:14:00,35.2,30.0,30.01,WNW,284,2.0,6.0,81,0.00,OVC,SCT,0.00,0.0,WeatherDisplay:10.37,2013-02-06 03:14:00,
2013-02-05 22:19:00,35.2,30.0,30.01,West,280,2.0,8.0,81,0.00,OVC,SCT,0.00,0.0,WeatherDisplay:10.37,2013-02-06 03:19:00,
2013-02-05 22:24:00,35.2,30.0,30.01,WNW,290,1.0,7.0,81,0.00,OVC,SCT,0.00,0.0,WeatherDisplay:10.37,2013-02-06 03:24:00,
2013-02-05 22:34:00,34.9,29.6,30.02,NW,307,1.0,8.0,81,0.00,OVC,SCT,0.00,0.0,WeatherDisplay:10.37,2013-02-06 03:34:00,
2013-02-05 22:40:00,34.9,29.6,30.02,NW,309,0.0,1.0,81,0.00,OVC,SCT,0.00,0.0,WeatherDisplay:10.37,2013-02-06 03:40:00,
2013-02-05 22:49:00,34.8,29.6,30.03,West,279,2.0,7.0,81,0.00,OVC,SCT,0.00,0.0,WeatherDisplay:10.37,2013-02-06 03:49:00,
2013-02-05 22:54:00,34.7,29.5,30.02,WNW,302,1.0,7.0,81,0.00,OVC,SCT,0.00,0.0,WeatherDisplay:10.37,2013-02-06 03:54:00,
2013-02-05 23:05:00,34.5,29.3,30.03,WNW,300,0.0,9.0,81,0.00,OVC,SCT,0.00,0.0,WeatherDisplay:10.37,2013-02-06 04:05:00,
2013-02-05 23:10:00,34.3,29.1,30.03,NW,314,2.0,8.0,81,0.00,OVC,SCT,0.00,0.0,WeatherDisplay:10.37,2013-02-06 04:10:00,
2013-02-05 23:20:00,34.3,29.1,30.03,NW,320,3.0,8.0,81,0.00,OVC,SCT,0.00,0.0,WeatherDisplay:10.37,2013-02-06 04:20:00,
2013-02-05 23:29:00,34.2,28.9,30.03,NW,313,8.0,10.0,81,0.00,OVC,SCT,0.00,0.0,WeatherDisplay:10.37,2013-02-06 04:29:00,
2013-02-05 23:39:00,33.7,28.5,30.04,WNW,303,1.0,8.0,81,0.00,OVC,SCT,0.00,0.0,WeatherDisplay:10.37,2013-02-06 04:39:00,
2013-02-05 23:45:00,33.6,28.4,30.04,NW,307,3.0,7.0,81,0.00,OVC,SCT,0.00,0.0,WeatherDisplay:10.37,2013-02-06 04:45:00,
2013-02-05 23:54:00,33.4,28.5,30.05,NW,319,1.0,8.0,82,0.00,OVC,SCT,0.00,0.0,WeatherDisplay:10.37,2013-02-06 04:54:00,
2013-02-05 23:59:00,33.2,28.3,30.05,NW,320,1.0,9.0,82,0.00,OVC,SCT,0.00,0.0,WeatherDisplay:10.37,2013-02-06 04:59:00,